Time;durP1;ratioP1;P1;durP2;ratioP2;P2;SDS_P1;SDS_P2;PMS_P1;PMS_P2;Temp;Humidity;BMP_temperature;BMP_pressure;BME280_temperature;BME280_humidity;BME280_pressure;Samples;Min_cycle;Max_cycle;Signal;HPM_P1;HPM_P2
2023/07/27 00:00:15;;;;;;;5.63;4.40;;;12.80;99.90;;;;;;5073958;28;20444;-58
2023/07/27 00:02:42;;;;;;;7.47;4.33;;;12.70;99.90;;;;;;5073559;28;20509;-58
2023/07/27 00:05:12;;;;;;;5.83;4.20;;;12.70;99.90;;;;;;5074081;28;20463;-60
2023/07/27 00:07:39;;;;;;;5.47;4.97;;;12.70;99.90;;;;;;5074273;28;20513;-59
2023/07/27 00:10:07;;;;;;;5.60;5.00;;;12.70;99.90;;;;;;5073934;28;20449;-58
2023/07/27 00:12:34;;;;;;;6.07;4.43;;;12.70;99.90;;;;;;5073760;28;20449;-60
2023/07/27 00:15:00;;;;;;;15.53;4.63;;;12.60;99.90;;;;;;5073918;28;20463;-59
2023/07/27 00:17:27;;;;;;;4.77;4.37;;;12.60;99.90;;;;;;5073651;28;20475;-58
2023/07/27 00:19:54;;;;;;;5.03;4.27;;;12.60;99.90;;;;;;5073833;28;20443;-59
2023/07/27 00:22:22;;;;;;;8.83;3.73;;;12.60;99.90;;;;;;5073618;28;20450;-60
2023/07/27 00:24:49;;;;;;;6.60;4.13;;;12.60;99.90;;;;;;5073139;28;20482;-60
2023/07/27 00:27:16;;;;;;;6.60;4.43;;;12.50;99.90;;;;;;5074747;28;20430;-59
2023/07/27 00:29:43;;;;;;;4.30;3.90;;;12.50;99.90;;;;;;5077728;28;20439;-58
2023/07/27 00:32:10;;;;;;;6.83;5.00;;;12.50;99.90;;;;;;5078175;28;20824;-59
2023/07/27 00:34:36;;;;;;;5.47;4.70;;;12.40;99.90;;;;;;5077489;28;20469;-59
2023/07/27 00:37:03;;;;;;;4.63;4.23;;;12.50;99.90;;;;;;5077225;28;20480;-59
2023/07/27 00:39:31;;;;;;;5.03;4.53;;;12.40;99.90;;;;;;5077090;28;20454;-59
2023/07/27 00:41:58;;;;;;;6.30;5.00;;;12.40;99.90;;;;;;5077123;28;20963;-60
2023/07/27 00:44:25;;;;;;;5.83;5.23;;;12.40;99.90;;;;;;5077484;28;20445;-59
2023/07/27 00:46:52;;;;;;;5.70;4.80;;;12.40;99.90;;;;;;5077060;28;20955;-60
2023/07/27 00:49:20;;;;;;;7.20;4.87;;;12.40;99.90;;;;;;5077483;28;20439;-58
2023/07/27 00:51:47;;;;;;;6.50;4.70;;;12.30;99.90;;;;;;5077160;28;20447;-59
2023/07/27 00:54:16;;;;;;;6.47;4.90;;;12.30;99.90;;;;;;5076968;28;20447;-59
2023/07/27 00:56:44;;;;;;;5.43;4.93;;;12.30;99.90;;;;;;5077400;28;20483;-59
2023/07/27 00:59:11;;;;;;;7.30;4.87;;;12.30;99.90;;;;;;5077579;28;20445;-58
2023/07/27 01:01:38;;;;;;;8.43;6.47;;;12.20;99.90;;;;;;5076950;28;20451;-60
2023/07/27 01:04:05;;;;;;;6.90;5.40;;;12.30;99.90;;;;;;5076665;28;20867;-59
2023/07/27 01:06:32;;;;;;;6.93;6.20;;;12.30;99.90;;;;;;5076276;28;20470;-58
2023/07/27 01:08:59;;;;;;;6.03;5.30;;;12.20;99.90;;;;;;5076141;28;20793;-59
2023/07/27 01:11:36;;;;;;;6.30;5.27;;;12.20;99.90;;;;;;5076389;28;20440;-57
2023/07/27 01:14:13;;;;;;;5.83;4.90;;;12.20;99.90;;;;;;5076043;28;20893;-59
2023/07/27 01:16:47;;;;;;;5.80;5.00;;;12.20;99.90;;;;;;5076786;28;20491;-59
2023/07/27 01:19:31;;;;;;;10.90;6.90;;;12.20;99.90;;;;;;5076220;28;20433;-58
2023/07/27 01:22:12;;;;;;;8.50;5.87;;;12.30;99.90;;;;;;5076124;28;20430;-56
2023/07/27 01:25:02;;;;;;;7.87;6.20;;;12.20;99.90;;;;;;5075759;28;20841;-59
2023/07/27 01:27:46;;;;;;;8.90;5.80;;;12.30;99.90;;;;;;5076127;28;20437;-59
2023/07/27 01:30:38;;;;;;;9.30;6.30;;;12.30;99.90;;;;;;5075890;28;20789;-58
2023/07/27 01:33:07;;;;;;;6.47;5.70;;;12.30;99.90;;;;;;5075948;28;20424;-58
2023/07/27 01:35:40;;;;;;;6.60;5.90;;;12.30;99.90;;;;;;5076063;28;20461;-58
2023/07/27 01:38:10;;;;;;;8.67;6.23;;;12.30;99.90;;;;;;5075543;28;20466;-58
2023/07/27 01:40:40;;;;;;;8.37;6.70;;;12.40;99.90;;;;;;5075409;28;20444;-59
2023/07/27 01:43:07;;;;;;;6.53;5.70;;;12.40;99.90;;;;;;5076013;28;20454;-59
2023/07/27 01:45:34;;;;;;;11.00;5.60;;;12.40;99.90;;;;;;5075582;28;20470;-59
2023/07/27 01:48:04;;;;;;;6.93;5.80;;;12.50;99.90;;;;;;5075691;28;20450;-58
2023/07/27 01:50:32;;;;;;;8.73;6.63;;;12.50;99.90;;;;;;5075334;28;20456;-59
2023/07/27 01:53:00;;;;;;;9.53;7.73;;;12.50;99.90;;;;;;5075584;28;20447;-58
2023/07/27 01:55:29;;;;;;;6.93;6.27;;;12.50;99.90;;;;;;5075043;28;21021;-59
2023/07/27 01:57:59;;;;;;;7.17;5.90;;;12.50;99.90;;;;;;5075524;28;20484;-58
2023/07/27 02:00:26;;;;;;;7.03;5.80;;;12.50;99.90;;;;;;5075093;28;20432;-56
2023/07/27 02:02:54;;;;;;;7.53;6.20;;;12.50;99.90;;;;;;5075345;28;20445;-58
2023/07/27 02:05:23;;;;;;;9.10;6.20;;;12.50;99.90;;;;;;5075321;28;20463;-58
2023/07/27 02:07:49;;;;;;;13.53;6.23;;;12.50;99.90;;;;;;5075170;28;20473;-60
2023/07/27 02:10:18;;;;;;;8.30;6.50;;;12.50;99.90;;;;;;5075497;28;20449;-58
2023/07/27 02:12:49;;;;;;;14.13;8.20;;;12.50;99.90;;;;;;5075358;28;20446;-58
2023/07/27 02:15:23;;;;;;;6.43;5.83;;;12.60;99.90;;;;;;5075639;28;20553;-59
2023/07/27 02:17:55;;;;;;;8.30;6.03;;;12.60;99.90;;;;;;5075334;28;20562;-59
2023/07/27 02:20:24;;;;;;;7.87;6.10;;;12.60;99.90;;;;;;5076239;28;20426;-59
2023/07/27 02:22:53;;;;;;;9.90;6.83;;;12.60;99.90;;;;;;5075752;28;20979;-58
2023/07/27 02:25:20;;;;;;;8.33;6.10;;;12.60;99.90;;;;;;5075546;28;20479;-60
2023/07/27 02:27:47;;;;;;;7.80;6.67;;;12.60;99.90;;;;;;5076710;28;20435;-59
2023/07/27 02:30:14;;;;;;;7.97;5.93;;;12.60;99.90;;;;;;5077416;28;20509;-58
2023/07/27 02:32:40;;;;;;;6.53;5.93;;;12.60;99.90;;;;;;5076897;28;20529;-58
2023/07/27 02:35:08;;;;;;;7.30;5.77;;;12.60;99.90;;;;;;5077317;28;20455;-59
2023/07/27 02:37:36;;;;;;;7.20;6.50;;;12.60;99.90;;;;;;5076196;28;20481;-59
2023/07/27 02:40:03;;;;;;;6.50;5.83;;;12.60;99.90;;;;;;5076042;28;20449;-59
2023/07/27 02:42:30;;;;;;;7.10;5.80;;;12.60;99.90;;;;;;5076255;28;20453;-58
2023/07/27 02:44:56;;;;;;;8.60;6.57;;;12.60;99.90;;;;;;5076523;28;20458;-59
2023/07/27 02:47:23;;;;;;;7.50;5.83;;;12.60;99.90;;;;;;5074651;28;20441;-60
2023/07/27 02:49:50;;;;;;;6.47;5.40;;;12.70;99.90;;;;;;5074470;28;20940;-59
2023/07/27 02:52:17;;;;;;;7.37;6.47;;;12.70;99.90;;;;;;5074021;28;20455;-59
2023/07/27 02:54:45;;;;;;;6.80;6.20;;;12.70;99.90;;;;;;5074796;28;21005;-59
2023/07/27 02:57:11;;;;;;;6.70;5.10;;;12.70;99.90;;;;;;5075216;28;20483;-59
2023/07/27 02:59:38;;;;;;;12.10;6.43;;;12.70;99.90;;;;;;5075712;28;20849;-59
2023/07/27 03:02:06;;;;;;;6.23;5.63;;;12.70;99.90;;;;;;5074975;28;20457;-59
2023/07/27 03:04:33;;;;;;;7.50;6.33;;;12.70;99.90;;;;;;5074973;28;20444;-59
2023/07/27 03:07:00;;;;;;;6.73;5.53;;;12.70;99.90;;;;;;5074849;28;20443;-58
2023/07/27 03:09:26;;;;;;;10.20;6.47;;;12.60;99.90;;;;;;5074866;28;20473;-59
2023/07/27 03:11:54;;;;;;;8.60;6.07;;;12.60;99.90;;;;;;5074449;28;20450;-59
2023/07/27 03:14:21;;;;;;;6.97;6.10;;;12.60;99.90;;;;;;5074491;28;20442;-59
2023/07/27 03:16:48;;;;;;;9.23;6.30;;;12.60;99.90;;;;;;5073570;28;20950;-58
2023/07/27 03:19:15;;;;;;;7.17;5.67;;;12.60;99.90;;;;;;5073603;28;20475;-58
2023/07/27 03:21:41;;;;;;;7.20;6.07;;;12.60;99.90;;;;;;5073826;28;20451;-58
2023/07/27 03:24:08;;;;;;;9.10;5.60;;;12.60;99.90;;;;;;5073612;28;20443;-60
2023/07/27 03:26:35;;;;;;;8.97;6.13;;;12.60;99.90;;;;;;5073289;28;20476;-58
2023/07/27 03:29:03;;;;;;;6.53;5.77;;;12.60;99.90;;;;;;5073728;28;20440;-58
2023/07/27 03:31:31;;;;;;;8.87;5.97;;;12.60;99.90;;;;;;5073529;28;20445;-59
2023/07/27 03:33:57;;;;;;;6.50;5.07;;;12.60;99.90;;;;;;5073631;28;20458;-59
2023/07/27 03:36:24;;;;;;;8.03;5.87;;;12.70;99.90;;;;;;5073293;28;20559;-59
2023/07/27 03:38:51;;;;;;;7.27;6.00;;;12.70;99.90;;;;;;5073175;28;20486;-59
2023/07/27 03:41:18;;;;;;;6.20;5.17;;;12.70;99.90;;;;;;5072927;28;20798;-59
2023/07/27 03:43:44;;;;;;;8.77;5.33;;;12.70;99.90;;;;;;5073366;28;20443;-58
2023/07/27 03:46:12;;;;;;;5.60;5.10;;;12.80;99.90;;;;;;5072813;28;20831;-59
2023/07/27 03:48:39;;;;;;;8.07;6.10;;;12.80;99.90;;;;;;5073216;28;20206;-60
2023/07/27 03:51:05;;;;;;;8.33;6.30;;;12.90;99.90;;;;;;5073075;28;20444;-59
2023/07/27 03:53:32;;;;;;;7.43;5.50;;;12.90;99.90;;;;;;5073132;28;20446;-56
2023/07/27 03:56:01;;;;;;;5.60;5.10;;;13.00;99.90;;;;;;5073128;28;20468;-59
2023/07/27 03:58:28;;;;;;;5.50;5.00;;;13.00;99.90;;;;;;5072937;28;20471;-59
2023/07/27 04:00:54;;;;;;;7.77;5.50;;;13.10;99.90;;;;;;5072691;28;20447;-59
2023/07/27 04:03:23;;;;;;;5.97;5.37;;;13.10;99.90;;;;;;5072532;28;20438;-59
2023/07/27 04:05:50;;;;;;;6.30;5.70;;;13.20;99.90;;;;;;5072672;28;20462;-58
2023/07/27 04:08:17;;;;;;;7.03;5.60;;;13.20;99.90;;;;;;5072486;28;20963;-58
2023/07/27 04:12:00;;;;;;;6.27;5.37;;;13.30;99.90;;;;;;5111648;27;21057;-59
2023/07/27 04:14:27;;;;;;;7.80;6.10;;;13.40;99.90;;;;;;5111648;28;20444;-60
2023/07/27 04:16:53;;;;;;;6.63;5.10;;;13.40;99.90;;;;;;5111941;28;20446;-60
2023/07/27 04:19:20;;;;;;;6.30;5.20;;;13.50;99.90;;;;;;5112007;28;20441;-60
2023/07/27 04:21:47;;;;;;;6.83;5.87;;;13.60;99.90;;;;;;5111032;28;20442;-59
2023/07/27 04:24:14;;;;;;;5.73;5.23;;;13.60;99.90;;;;;;5111022;28;20438;-59
2023/07/27 04:26:41;;;;;;;5.63;5.13;;;13.70;99.90;;;;;;5110470;28;20528;-59
2023/07/27 04:29:09;;;;;;;6.40;5.23;;;13.70;99.90;;;;;;5110750;28;20441;-60
2023/07/27 04:31:35;;;;;;;5.43;4.90;;;13.80;99.90;;;;;;5111643;28;20473;-60
2023/07/27 04:34:02;;;;;;;6.67;6.07;;;13.90;99.90;;;;;;5111464;28;20533;-60
2023/07/27 04:36:29;;;;;;;5.43;4.53;;;14.00;99.90;;;;;;5114950;28;20535;-60
2023/07/27 04:38:56;;;;;;;7.10;5.13;;;14.10;99.90;;;;;;5114404;28;20452;-60
2023/07/27 04:41:23;;;;;;;5.50;5.00;;;14.10;99.90;;;;;;5111583;28;20438;-59
2023/07/27 04:43:50;;;;;;;6.50;4.97;;;14.20;99.90;;;;;;5110999;28;20437;-59
2023/07/27 04:46:18;;;;;;;5.37;4.87;;;14.30;99.90;;;;;;5110576;28;21053;-58
2023/07/27 04:48:45;;;;;;;5.30;4.80;;;14.40;99.90;;;;;;5110590;28;20520;-59
2023/07/27 04:51:11;;;;;;;5.33;4.83;;;14.40;99.90;;;;;;5110115;28;20851;-60
2023/07/27 04:53:38;;;;;;;4.97;4.47;;;14.50;99.90;;;;;;5110688;28;20458;-59
2023/07/27 04:56:05;;;;;;;5.60;4.50;;;14.50;99.90;;;;;;5111293;28;20462;-60
2023/07/27 04:58:32;;;;;;;6.10;3.90;;;14.60;99.90;;;;;;5111290;28;20838;-58
2023/07/27 05:00:59;;;;;;;5.27;4.00;;;14.70;99.90;;;;;;5111965;28;20481;-58
2023/07/27 05:03:27;;;;;;;4.70;3.90;;;14.70;99.90;;;;;;5110713;28;20515;-59
2023/07/27 05:05:54;;;;;;;5.17;4.67;;;14.80;99.90;;;;;;5110340;28;20994;-59
2023/07/27 05:08:21;;;;;;;5.40;4.80;;;14.90;99.90;;;;;;5111362;28;20469;-58
2023/07/27 05:10:47;;;;;;;4.93;4.23;;;14.90;99.90;;;;;;5110839;28;20492;-59
2023/07/27 05:13:14;;;;;;;5.87;4.30;;;15.00;99.90;;;;;;5110690;28;20447;-57
2023/07/27 05:15:42;;;;;;;4.40;4.00;;;15.10;99.90;;;;;;5110505;28;20465;-59
2023/07/27 05:18:08;;;;;;;6.57;4.60;;;15.10;99.90;;;;;;5110298;28;20452;-61
2023/07/27 05:20:37;;;;;;;6.07;4.63;;;15.10;99.90;;;;;;5110201;28;20442;-58
2023/07/27 05:23:03;;;;;;;5.17;4.40;;;15.00;99.90;;;;;;5098371;28;20824;-59
2023/07/27 05:25:30;;;;;;;4.90;4.40;;;15.00;99.90;;;;;;5128806;22;20848;-56
2023/07/27 05:27:57;;;;;;;4.80;4.40;;;15.00;99.90;;;;;;5035311;28;20544;-57
2023/07/27 05:30:24;;;;;;;4.10;3.37;;;15.10;99.90;;;;;;5036006;28;20487;-58
2023/07/27 05:32:50;;;;;;;5.77;3.53;;;15.10;99.90;;;;;;5035955;28;20449;-57
2023/07/27 05:35:17;;;;;;;6.47;4.50;;;15.10;99.90;;;;;;5035604;28;20448;-57
2023/07/27 05:37:46;;;;;;;5.40;4.37;;;15.00;99.90;;;;;;5035432;28;20568;-55
2023/07/27 05:40:14;;;;;;;4.90;4.50;;;15.00;99.90;;;;;;5035382;28;20457;-56
2023/07/27 05:42:40;;;;;;;8.17;4.80;;;15.00;99.90;;;;;;5035256;28;20455;-56
2023/07/27 05:45:08;;;;;;;5.23;4.60;;;15.00;99.90;;;;;;5035452;28;20445;-57
2023/07/27 05:47:35;;;;;;;6.00;5.33;;;15.00;99.90;;;;;;5035342;28;20469;-56
2023/07/27 05:50:02;;;;;;;5.83;4.43;;;15.00;99.90;;;;;;5034954;28;20457;-58
2023/07/27 05:52:29;;;;;;;5.23;4.73;;;15.00;99.90;;;;;;5035113;28;20943;-57
2023/07/27 05:54:57;;;;;;;5.13;4.57;;;15.10;99.90;;;;;;5035032;28;20460;-56
2023/07/27 05:57:24;;;;;;;5.13;4.67;;;15.10;99.90;;;;;;5035182;28;20469;-57
2023/07/27 05:59:51;;;;;;;6.27;4.77;;;15.20;99.90;;;;;;5034636;28;20511;-57
2023/07/27 06:02:18;;;;;;;5.20;4.50;;;15.30;99.90;;;;;;5034969;28;20441;-57
2023/07/27 06:04:45;;;;;;;4.17;3.77;;;15.40;99.90;;;;;;5035013;28;20442;-56
2023/07/27 06:07:11;;;;;;;6.03;4.27;;;15.50;99.90;;;;;;5035104;28;20473;-58
2023/07/27 06:09:38;;;;;;;5.63;4.60;;;15.60;99.90;;;;;;5035081;28;20488;-56
2023/07/27 06:12:11;;;;;;;4.13;3.73;;;15.70;99.90;;;;;;5034912;28;20481;-56
2023/07/27 06:14:38;;;;;;;5.57;3.63;;;15.70;99.90;;;;;;5035151;28;20430;-57
2023/07/27 06:17:06;;;;;;;4.50;3.70;;;15.80;99.90;;;;;;5035033;28;20473;-57
2023/07/27 06:19:32;;;;;;;5.17;4.40;;;15.90;99.90;;;;;;5034986;28;20529;-57
2023/07/27 06:21:59;;;;;;;4.33;3.93;;;15.90;99.90;;;;;;5034939;28;20967;-56
2023/07/27 06:24:26;;;;;;;5.07;4.30;;;16.00;99.90;;;;;;5034736;28;20454;-57
2023/07/27 06:26:53;;;;;;;4.73;4.23;;;16.00;99.90;;;;;;5034173;28;20862;-57
2023/07/27 06:29:21;;;;;;;4.00;3.57;;;16.00;99.90;;;;;;5034153;28;20450;-57
2023/07/27 06:31:48;;;;;;;5.60;3.60;;;16.00;99.90;;;;;;5034698;28;20488;-57
2023/07/27 06:34:15;;;;;;;4.80;3.33;;;16.10;99.90;;;;;;5033913;28;20515;-55
2023/07/27 06:36:42;;;;;;;5.40;4.47;;;16.10;99.90;;;;;;5034287;28;21001;-57
2023/07/27 06:39:08;;;;;;;5.43;4.93;;;16.20;99.90;;;;;;5034825;28;20960;-56
2023/07/27 06:41:35;;;;;;;5.00;3.87;;;16.30;99.90;;;;;;5034524;28;20474;-57
2023/07/27 06:44:02;;;;;;;4.23;3.83;;;16.40;99.90;;;;;;5033953;28;20452;-56
2023/07/27 06:46:31;;;;;;;4.90;4.40;;;16.50;99.90;;;;;;5033996;28;20460;-58
2023/07/27 06:48:58;;;;;;;4.00;3.60;;;16.60;99.90;;;;;;5034550;28;20447;-56
2023/07/27 06:51:25;;;;;;;5.53;3.83;;;16.80;99.90;;;;;;5034121;28;20488;-56
2023/07/27 06:53:51;;;;;;;6.53;5.93;;;16.80;99.90;;;;;;5034408;28;20441;-57
2023/07/27 06:56:18;;;;;;;4.10;3.70;;;17.00;99.90;;;;;;5034239;28;20834;-57
2023/07/27 06:58:45;;;;;;;2.93;2.63;;;17.20;99.90;;;;;;5034397;28;20441;-56
2023/07/27 07:01:12;;;;;;;6.43;3.30;;;17.30;99.90;;;;;;5034204;28;20435;-56
2023/07/27 07:03:40;;;;;;;6.47;3.67;;;17.30;99.90;;;;;;5034007;28;20455;-56
2023/07/27 07:06:07;;;;;;;5.00;3.90;;;17.20;99.90;;;;;;5034163;28;20558;-56
2023/07/27 07:08:34;;;;;;;4.27;3.60;;;17.20;99.90;;;;;;5034289;28;20538;-56
2023/07/27 07:11:01;;;;;;;4.63;3.53;;;17.20;99.90;;;;;;5034240;28;20489;-55
2023/07/27 07:13:29;;;;;;;3.30;3.00;;;17.20;99.90;;;;;;5033790;28;20444;-56
2023/07/27 07:15:55;;;;;;;4.60;3.77;;;17.20;99.90;;;;;;5033780;28;20491;-55
2023/07/27 07:18:22;;;;;;;3.93;3.10;;;17.30;99.90;;;;;;5033808;28;20446;-57
2023/07/27 07:20:50;;;;;;;4.77;3.03;;;17.20;99.90;;;;;;5034136;28;20448;-56
2023/07/27 07:23:17;;;;;;;3.50;3.20;;;17.20;99.90;;;;;;5033720;28;20452;-56
2023/07/27 07:25:44;;;;;;;4.67;3.63;;;17.10;99.90;;;;;;5033662;28;20534;-57
2023/07/27 07:28:11;;;;;;;3.70;3.00;;;17.20;99.90;;;;;;5034455;28;20419;-58
2023/07/27 07:30:40;;;;;;;5.07;3.43;;;17.10;99.90;;;;;;5033321;28;20452;-58
2023/07/27 07:33:07;;;;;;;4.83;3.63;;;17.10;99.90;;;;;;5033152;28;20972;-56
2023/07/27 07:35:39;;;;;;;4.43;3.47;;;17.10;99.90;;;;;;5033473;28;20490;-57
2023/07/27 07:38:07;;;;;;;4.60;4.20;;;17.10;99.90;;;;;;5033408;28;20463;-57
2023/07/27 07:40:34;;;;;;;3.60;2.80;;;17.10;99.90;;;;;;5033906;28;20491;-56
2023/07/27 07:43:01;;;;;;;4.70;4.03;;;17.10;99.90;;;;;;5033553;28;20440;-55
2023/07/27 07:45:28;;;;;;;5.20;3.70;;;17.10;99.90;;;;;;5033457;28;20482;-56
2023/07/27 07:47:55;;;;;;;8.60;3.90;;;17.10;99.90;;;;;;5034100;28;20451;-57
2023/07/27 07:50:21;;;;;;;4.73;3.90;;;17.10;99.90;;;;;;5034560;28;20441;-57
2023/07/27 07:52:48;;;;;;;7.30;4.03;;;17.10;99.90;;;;;;5033398;28;20480;-56
2023/07/27 07:55:16;;;;;;;6.63;4.23;;;17.10;99.90;;;;;;5033196;28;20444;-57
2023/07/27 07:57:43;;;;;;;5.63;3.97;;;17.00;99.90;;;;;;5033209;28;20497;-56
2023/07/27 08:00:11;;;;;;;5.37;3.30;;;17.00;99.90;;;;;;5033221;28;20459;-57
2023/07/27 08:02:38;;;;;;;4.13;3.73;;;17.00;99.90;;;;;;5034017;28;20439;-57
2023/07/27 08:05:05;;;;;;;4.80;4.00;;;17.00;99.90;;;;;;5033142;28;20450;-55
2023/07/27 08:07:32;;;;;;;5.10;3.80;;;17.00;99.90;;;;;;5033200;28;20542;-56
2023/07/27 08:09:59;;;;;;;4.40;3.93;;;17.10;99.90;;;;;;5033383;28;20446;-56
2023/07/27 08:12:27;;;;;;;4.90;3.50;;;17.20;99.90;;;;;;5033395;28;20475;-57
2023/07/27 08:14:54;;;;;;;6.60;4.00;;;17.20;99.90;;;;;;5032815;28;20970;-56
2023/07/27 08:17:20;;;;;;;4.53;3.50;;;17.20;99.90;;;;;;5033073;28;20838;-56
2023/07/27 08:19:47;;;;;;;5.47;3.97;;;17.30;99.90;;;;;;5032997;28;20447;-56
2023/07/27 08:22:14;;;;;;;4.33;3.60;;;17.30;99.90;;;;;;5032964;28;20439;-57
2023/07/27 08:24:40;;;;;;;5.57;4.20;;;17.30;99.90;;;;;;5032780;28;20441;-57
2023/07/27 08:27:08;;;;;;;7.17;4.37;;;17.40;99.90;;;;;;5032459;28;20497;-57
2023/07/27 08:29:36;;;;;;;4.70;3.80;;;17.40;99.90;;;;;;5033092;28;20445;-57
2023/07/27 08:32:03;;;;;;;4.10;3.60;;;17.50;99.90;;;;;;5032253;28;20476;-57
2023/07/27 08:34:30;;;;;;;5.50;3.80;;;17.50;99.90;;;;;;5033071;28;20477;-58
2023/07/27 08:36:57;;;;;;;4.47;4.03;;;17.50;99.90;;;;;;5032995;28;20555;-56
2023/07/27 08:39:23;;;;;;;6.80;4.30;;;17.60;99.90;;;;;;5032732;28;20448;-57
2023/07/27 08:41:51;;;;;;;5.07;3.57;;;17.60;99.90;;;;;;5032559;28;20483;-57
2023/07/27 08:44:18;;;;;;;4.67;3.87;;;17.70;99.90;;;;;;5032820;28;20523;-57
2023/07/27 08:46:47;;;;;;;4.00;3.60;;;17.70;99.90;;;;;;5032804;28;20473;-57
2023/07/27 08:49:15;;;;;;;4.40;3.63;;;17.70;99.90;;;;;;5032455;28;20505;-57
2023/07/27 08:51:44;;;;;;;8.23;3.67;;;17.70;99.90;;;;;;5032484;28;20828;-58
2023/07/27 08:54:11;;;;;;;4.50;3.50;;;17.60;99.90;;;;;;5032363;28;20547;-56
2023/07/27 08:56:38;;;;;;;4.20;3.53;;;17.50;99.90;;;;;;5032778;28;20966;-56
2023/07/27 08:59:05;;;;;;;4.70;3.90;;;17.50;99.90;;;;;;5036246;28;20443;-57
2023/07/27 09:01:32;;;;;;;6.17;3.70;;;17.50;99.90;;;;;;5036361;28;20447;-57
2023/07/27 09:04:00;;;;;;;4.30;3.60;;;17.60;99.90;;;;;;5036474;28;20443;-58
2023/07/27 09:06:40;;;;;;;6.40;3.77;;;17.70;99.90;;;;;;5036079;28;20471;-58
2023/07/27 09:09:15;;;;;;;4.10;3.73;;;17.80;99.90;;;;;;5036214;28;20448;-56
2023/07/27 09:11:42;;;;;;;6.37;3.73;;;17.90;99.90;;;;;;5036405;28;20480;-57
2023/07/27 09:14:09;;;;;;;4.20;3.80;;;18.00;99.90;;;;;;5035771;28;20457;-57
2023/07/27 09:16:37;;;;;;;5.40;3.80;;;18.10;99.90;;;;;;5035598;28;20476;-57
2023/07/27 09:19:06;;;;;;;4.60;3.83;;;18.20;99.90;;;;;;5036239;28;20447;-56
2023/07/27 09:21:43;;;;;;;4.50;4.03;;;18.30;99.90;;;;;;5036303;28;20475;-57
2023/07/27 09:24:11;;;;;;;4.40;3.97;;;18.30;99.90;;;;;;5035970;28;20437;-57
2023/07/27 09:26:49;;;;;;;4.13;3.73;;;18.40;99.90;;;;;;5036312;28;20477;-56
2023/07/27 09:29:17;;;;;;;5.50;3.53;;;18.40;99.90;;;;;;5035968;28;20501;-58
2023/07/27 09:31:46;;;;;;;3.90;3.40;;;18.50;99.90;;;;;;5036083;28;20481;-57
2023/07/27 09:34:14;;;;;;;4.13;3.43;;;18.50;99.90;;;;;;5035918;28;20987;-56
2023/07/27 09:36:41;;;;;;;4.27;3.87;;;18.60;99.90;;;;;;5035926;28;20469;-58
2023/07/27 09:39:09;;;;;;;11.60;3.80;;;18.60;99.90;;;;;;5035624;28;20977;-56
2023/07/27 09:41:35;;;;;;;5.03;3.57;;;18.50;99.90;;;;;;5035767;28;20507;-58
2023/07/27 09:44:03;;;;;;;4.57;4.17;;;18.40;99.90;;;;;;5035480;28;20445;-58
2023/07/27 09:46:30;;;;;;;5.83;3.80;;;18.40;99.90;;;;;;5035340;28;20831;-58
2023/07/27 09:48:58;;;;;;;4.23;3.83;;;18.30;99.90;;;;;;5035590;28;20837;-59
2023/07/27 09:51:28;;;;;;;3.73;3.43;;;18.30;99.90;;;;;;5035376;28;20448;-58
2023/07/27 09:53:55;;;;;;;5.00;3.90;;;18.20;99.90;;;;;;5035818;28;20445;-57
2023/07/27 09:56:22;;;;;;;6.20;3.83;;;18.10;99.90;;;;;;5035070;28;20475;-57
2023/07/27 09:58:49;;;;;;;5.57;4.57;;;17.90;99.90;;;;;;5035364;28;20534;-57
2023/07/27 10:01:16;;;;;;;4.97;3.97;;;17.70;99.90;;;;;;5035334;28;20451;-58
2023/07/27 10:03:44;;;;;;;4.63;3.93;;;17.60;99.90;;;;;;5035015;28;20448;-58
2023/07/27 10:06:13;;;;;;;5.30;4.07;;;17.40;99.90;;;;;;5035421;28;20506;-58
2023/07/27 10:08:42;;;;;;;4.87;3.73;;;17.20;99.90;;;;;;5035007;28;20464;-57
2023/07/27 10:11:09;;;;;;;7.20;5.20;;;17.20;99.90;;;;;;5034975;28;20965;-58
2023/07/27 10:13:42;;;;;;;5.73;4.50;;;17.10;99.90;;;;;;5034921;28;20478;-59
2023/07/27 10:16:11;;;;;;;5.17;4.30;;;17.10;99.90;;;;;;5035458;28;20472;-58
2023/07/27 10:18:44;;;;;;;4.97;4.47;;;17.00;99.90;;;;;;5034850;28;20501;-58
2023/07/27 10:21:29;;;;;;;5.93;3.97;;;17.00;99.90;;;;;;5035040;28;20543;-58
2023/07/27 10:23:58;;;;;;;4.23;3.77;;;17.00;99.90;;;;;;5035401;28;20911;-58
2023/07/27 10:26:46;;;;;;;5.17;4.07;;;16.90;99.90;;;;;;5034683;28;20901;-58
2023/07/27 10:29:15;;;;;;;4.70;3.90;;;16.80;99.90;;;;;;5034920;28;20948;-58
2023/07/27 10:31:44;;;;;;;4.63;3.80;;;16.80;99.90;;;;;;5034744;28;20454;-57
2023/07/27 10:34:15;;;;;;;5.33;3.80;;;16.80;99.90;;;;;;5035651;28;20508;-58
2023/07/27 10:36:56;;;;;;;4.80;4.00;;;16.90;99.90;;;;;;5034705;28;20582;-58
2023/07/27 10:39:28;;;;;;;5.30;4.20;;;16.90;99.90;;;;;;5035025;28;20762;-57
2023/07/27 10:42:03;;;;;;;6.83;4.83;;;17.00;99.90;;;;;;5035162;28;20419;-58
2023/07/27 10:44:39;;;;;;;4.17;3.70;;;17.00;99.90;;;;;;5034948;28;20428;-57
2023/07/27 10:47:08;;;;;;;8.13;4.57;;;17.00;99.90;;;;;;5034928;28;20469;-59
2023/07/27 10:49:37;;;;;;;5.17;4.43;;;16.90;99.90;;;;;;5034261;28;20441;-59
2023/07/27 10:52:04;;;;;;;4.50;4.10;;;16.90;99.90;;;;;;5034457;28;20547;-58
2023/07/27 10:54:37;;;;;;;4.83;4.40;;;16.80;99.90;;;;;;5034131;28;20450;-59
2023/07/27 10:57:06;;;;;;;7.27;6.47;;;16.90;99.90;;;;;;5034058;28;20476;-58
2023/07/27 10:59:36;;;;;;;5.43;4.53;;;16.90;99.90;;;;;;5034246;28;20818;-58
2023/07/27 11:02:06;;;;;;;8.37;5.43;;;16.90;99.90;;;;;;5034093;28;20485;-58
2023/07/27 11:04:34;;;;;;;6.23;4.57;;;17.00;99.90;;;;;;5034006;28;20449;-58
2023/07/27 11:07:01;;;;;;;4.50;4.10;;;17.10;99.90;;;;;;5033846;28;20468;-58
2023/07/27 11:09:27;;;;;;;6.43;4.10;;;17.10;99.90;;;;;;5034624;28;20451;-57
2023/07/27 11:12:00;;;;;;;4.20;3.80;;;17.10;99.90;;;;;;5034144;28;20454;-58
2023/07/27 11:14:27;;;;;;;6.30;3.80;;;17.00;99.90;;;;;;5034079;28;20433;-58
2023/07/27 11:16:54;;;;;;;5.00;4.30;;;17.00;99.90;;;;;;5033312;28;21008;-57
2023/07/27 11:19:22;;;;;;;3.80;3.50;;;17.00;99.90;;;;;;5033505;28;20455;-57
2023/07/27 11:21:50;;;;;;;3.67;3.10;;;16.90;99.90;;;;;;5033286;28;20431;-57
2023/07/27 11:24:19;;;;;;;3.87;3.30;;;17.00;99.90;;;;;;5033590;28;20435;-57
2023/07/27 11:26:46;;;;;;;3.60;3.00;;;17.00;99.90;;;;;;5033269;28;20518;-57
2023/07/27 11:29:15;;;;;;;3.10;2.80;;;17.10;99.90;;;;;;5033448;28;20811;-57
2023/07/27 11:31:53;;;;;;;2.40;2.20;;;17.20;99.90;;;;;;5033834;28;20505;-57
2023/07/27 11:34:23;;;;;;;3.40;2.43;;;17.20;99.90;;;;;;5033919;28;20450;-58
2023/07/27 11:36:53;;;;;;;3.53;2.30;;;17.20;99.90;;;;;;5033874;28;20467;-58
2023/07/27 11:39:20;;;;;;;2.73;2.50;;;17.20;99.90;;;;;;5049845;22;20442;-61
2023/07/27 11:41:50;;;;;;;3.10;2.70;;;17.20;99.90;;;;;;5034026;28;20447;-59
2023/07/27 11:44:20;;;;;;;5.10;3.67;;;17.20;99.90;;;;;;5034762;28;20445;-59
2023/07/27 11:46:49;;;;;;;2.90;2.70;;;17.30;99.90;;;;;;5034301;28;20439;-59
2023/07/27 11:49:16;;;;;;;2.53;2.33;;;17.40;99.90;;;;;;5034539;28;20452;-59
2023/07/27 11:51:46;;;;;;;3.33;2.60;;;17.40;99.90;;;;;;5035156;28;20468;-60
2023/07/27 11:54:22;;;;;;;2.20;2.00;;;17.40;99.90;;;;;;5035439;28;21017;-60
2023/07/27 11:56:51;;;;;;;2.50;2.10;;;17.40;99.90;;;;;;5034435;28;20428;-61
2023/07/27 11:59:19;;;;;;;3.77;2.10;;;17.40;99.90;;;;;;5034686;28;20449;-59
2023/07/27 12:01:47;;;;;;;2.87;2.43;;;17.30;99.90;;;;;;5033781;28;20954;-59
2023/07/27 12:04:14;;;;;;;2.30;2.10;;;17.40;99.90;;;;;;5034095;28;20466;-59
2023/07/27 12:06:42;;;;;;;2.43;2.00;;;17.40;99.90;;;;;;5034138;28;20455;-60
2023/07/27 12:09:09;;;;;;;8.47;2.50;;;17.40;99.90;;;;;;5035062;28;20447;-59
2023/07/27 12:11:37;;;;;;;4.10;2.53;;;17.40;99.90;;;;;;5035290;28;20446;-58
2023/07/27 12:14:04;;;;;;;2.10;1.83;;;17.30;99.90;;;;;;5035893;28;20489;-61
2023/07/27 12:16:38;;;;;;;4.07;2.10;;;17.30;99.90;;;;;;5038446;28;20451;-61
2023/07/27 12:19:07;;;;;;;5.53;2.10;;;17.20;99.90;;;;;;5036348;28;20505;-60
2023/07/27 12:21:34;;;;;;;3.00;2.70;;;17.20;99.90;;;;;;5034418;28;20939;-60
2023/07/27 12:24:02;;;;;;;2.47;2.27;;;17.30;99.90;;;;;;5034408;28;20450;-60
2023/07/27 12:26:29;;;;;;;2.60;2.30;;;17.50;99.90;;;;;;5033673;28;20448;-60
2023/07/27 12:28:56;;;;;;;2.70;1.87;;;17.70;99.90;;;;;;5034354;28;20447;-59
2023/07/27 12:31:22;;;;;;;2.20;1.70;;;17.80;99.90;;;;;;5034446;28;20885;-60
2023/07/27 12:33:51;;;;;;;2.67;2.20;;;18.00;99.90;;;;;;5038124;28;20938;-60
2023/07/27 12:36:17;;;;;;;2.30;2.10;;;18.10;99.90;;;;;;5038293;28;20441;-60
2023/07/27 12:38:44;;;;;;;4.10;2.37;;;18.20;99.90;;;;;;5038399;28;20456;-60
2023/07/27 12:41:11;;;;;;;3.30;2.17;;;18.30;99.90;;;;;;5038602;28;20513;-59
2023/07/27 12:43:39;;;;;;;2.67;1.97;;;18.50;99.90;;;;;;5038020;28;20451;-59
2023/07/27 12:46:06;;;;;;;2.77;2.47;;;18.60;99.90;;;;;;5039122;28;20564;-61
2023/07/27 12:48:33;;;;;;;2.83;2.60;;;18.60;99.90;;;;;;5039569;28;20444;-62
2023/07/27 12:51:01;;;;;;;2.40;2.20;;;18.60;99.90;;;;;;5039635;28;20469;-61